createdAt,value
2022-10-31T00:02:16.319Z,15.60
2022-10-31T00:04:48.628Z,15.50
2022-10-31T00:07:18.491Z,15.50
2022-10-31T00:09:48.198Z,15.50
2022-10-31T00:12:21.782Z,15.40
2022-10-31T00:14:51.477Z,15.50
2022-10-31T00:17:21.397Z,15.40
2022-10-31T00:19:53.740Z,15.50
2022-10-31T00:22:23.516Z,15.40
2022-10-31T00:24:53.177Z,15.40
2022-10-31T00:27:22.834Z,15.30
2022-10-31T00:29:52.487Z,15.20
2022-10-31T00:32:22.120Z,15.20
2022-10-31T00:34:54.408Z,15.20
2022-10-31T00:37:24.112Z,15.10
2022-10-31T00:39:53.781Z,15.00
2022-10-31T00:42:23.419Z,15.00
2022-10-31T00:44:53.176Z,14.90
2022-10-31T00:47:22.821Z,14.90
2022-10-31T00:49:55.261Z,14.80
2022-10-31T00:52:24.933Z,14.80
2022-10-31T00:54:54.592Z,14.70
2022-10-31T00:57:24.306Z,14.70
2022-10-31T00:59:53.964Z,14.60
2022-10-31T01:02:23.830Z,14.60
2022-10-31T01:04:56.190Z,14.60
2022-10-31T01:07:25.906Z,14.60
2022-10-31T01:09:55.569Z,14.60
2022-10-31T01:12:25.258Z,14.50
2022-10-31T01:14:54.949Z,14.60
2022-10-31T01:17:24.654Z,14.60
2022-10-31T01:19:56.931Z,14.50
2022-10-31T01:22:26.650Z,14.50
2022-10-31T01:24:56.307Z,14.50
2022-10-31T01:27:26.079Z,14.40
2022-10-31T01:29:55.764Z,14.50
2022-10-31T01:32:25.542Z,14.50
2022-10-31T01:34:57.918Z,14.40
2022-10-31T01:37:27.571Z,14.40
2022-10-31T01:39:57.311Z,14.40
2022-10-31T01:42:27.304Z,14.40
2022-10-31T01:44:59.016Z,14.40
2022-10-31T01:47:35.080Z,14.40
2022-10-31T01:50:10.052Z,14.40
2022-10-31T01:52:41.455Z,14.40
2022-10-31T01:55:13.328Z,14.20
2022-10-31T01:57:45.937Z,14.30
2022-10-31T02:00:16.513Z,14.30
2022-10-31T02:02:46.604Z,14.20
2022-10-31T02:05:20.312Z,14.30
2022-10-31T02:07:52.471Z,14.30
2022-10-31T02:10:22.877Z,14.20
2022-10-31T02:12:54.094Z,14.20
2022-10-31T02:15:23.786Z,14.20
2022-10-31T02:17:53.603Z,14.10
2022-10-31T02:20:27.599Z,14.10
2022-10-31T02:23:12.370Z,14.10
2022-10-31T02:25:50.371Z,14.10
2022-10-31T02:28:28.948Z,14.10
2022-10-31T02:31:11.865Z,14.10
2022-10-31T02:33:44.915Z,14.10
2022-10-31T02:36:16.109Z,14.00
2022-10-31T02:38:51.361Z,14.00
2022-10-31T02:41:23.202Z,13.90
2022-10-31T02:43:57.894Z,13.90
2022-10-31T02:46:32.414Z,13.90
2022-10-31T02:49:04.565Z,13.90
2022-10-31T02:51:34.240Z,13.80
2022-10-31T02:54:03.895Z,13.80
2022-10-31T02:56:33.643Z,13.80
2022-10-31T02:59:04.417Z,13.80
2022-10-31T03:01:57.328Z,13.80
2022-10-31T03:04:32.993Z,13.80
2022-10-31T03:07:07.316Z,13.80
2022-10-31T03:09:38.383Z,13.70
2022-10-31T03:12:11.460Z,13.70
2022-10-31T03:14:44.930Z,13.70
2022-10-31T03:17:19.859Z,13.60
2022-10-31T03:19:51.174Z,13.50
2022-10-31T03:22:23.363Z,13.50
2022-10-31T03:24:54.667Z,13.50
2022-10-31T03:27:26.265Z,13.50
2022-10-31T03:29:57.899Z,13.50
2022-10-31T03:32:32.489Z,13.50
2022-10-31T03:35:03.842Z,13.50
2022-10-31T03:37:34.292Z,13.50
2022-10-31T03:40:04.624Z,13.50
2022-10-31T03:42:35.420Z,13.40
2022-10-31T03:45:07.951Z,13.40
2022-10-31T03:47:41.386Z,13.40
2022-10-31T03:50:11.984Z,13.40
2022-10-31T03:52:45.369Z,13.40
2022-10-31T03:55:19.277Z,13.40
2022-10-31T03:57:52.470Z,13.20
2022-10-31T04:00:22.339Z,13.20
2022-10-31T04:02:57.895Z,13.20
2022-10-31T04:05:28.156Z,13.10
2022-10-31T04:07:59.186Z,13.10
2022-10-31T04:10:32.926Z,13.20
2022-10-31T04:13:05.334Z,13.20
2022-10-31T04:15:35.905Z,13.10
2022-10-31T04:18:09.017Z,11.30
2022-10-31T04:20:39.573Z,13.10
2022-10-31T04:23:16.083Z,13.10
2022-10-31T04:25:45.792Z,13.00
2022-10-31T04:28:15.535Z,13.00
2022-10-31T04:30:45.178Z,13.00
2022-10-31T04:33:17.477Z,13.00
2022-10-31T04:35:47.308Z,12.90
2022-10-31T04:38:17.008Z,12.90
2022-10-31T04:40:46.708Z,12.90
2022-10-31T04:43:16.434Z,12.90
2022-10-31T04:45:46.173Z,12.90
2022-10-31T04:48:18.532Z,12.90
2022-10-31T04:50:48.372Z,12.90
2022-10-31T04:53:18.062Z,12.90
2022-10-31T04:55:47.844Z,12.90
2022-10-31T05:01:07.494Z,12.80
2022-10-31T05:03:40.650Z,12.80
2022-10-31T05:06:10.621Z,12.70
2022-10-31T05:08:40.357Z,12.60
2022-10-31T05:11:10.105Z,12.60
2022-10-31T05:13:39.834Z,12.60
2022-10-31T05:16:09.867Z,12.60
2022-10-31T05:18:42.196Z,12.60
2022-10-31T05:21:11.982Z,12.60
2022-10-31T05:23:45.863Z,12.60
2022-10-31T05:26:18.189Z,12.60
2022-10-31T05:28:47.916Z,12.60
2022-10-31T05:31:17.605Z,12.60
2022-10-31T05:33:49.994Z,12.50
2022-10-31T05:36:19.787Z,12.50
2022-10-31T05:38:49.515Z,12.40
2022-10-31T05:41:19.237Z,12.30
2022-10-31T05:43:49.167Z,12.40
2022-10-31T05:46:18.883Z,12.40
2022-10-31T05:48:51.353Z,12.40
2022-10-31T05:51:21.101Z,12.50
2022-10-31T05:53:51.146Z,12.50
2022-10-31T05:56:21.062Z,12.40
2022-10-31T05:58:50.904Z,12.50
2022-10-31T06:01:20.757Z,12.50
2022-10-31T06:03:53.153Z,12.50
2022-10-31T06:06:23.365Z,12.50
2022-10-31T06:08:53.044Z,12.50
2022-10-31T06:11:22.775Z,12.60
2022-10-31T06:13:52.519Z,12.60
2022-10-31T06:16:22.363Z,12.70
2022-10-31T06:18:54.786Z,12.70
2022-10-31T06:21:24.519Z,12.80
2022-10-31T06:23:54.319Z,12.80
2022-10-31T06:26:24.042Z,12.90
2022-10-31T06:28:53.879Z,12.80
2022-10-31T06:31:23.582Z,12.90
2022-10-31T06:33:55.915Z,12.90
2022-10-31T06:36:25.623Z,12.90
2022-10-31T06:38:55.475Z,13.00
2022-10-31T06:41:25.210Z,12.90
2022-10-31T06:43:54.985Z,12.90
2022-10-31T06:46:24.674Z,12.90
2022-10-31T06:48:57.109Z,12.90
2022-10-31T06:51:26.869Z,12.90
2022-10-31T06:53:56.653Z,13.00
2022-10-31T06:56:26.333Z,13.00
2022-10-31T06:58:56.115Z,13.00
2022-10-31T07:01:25.985Z,13.00
2022-10-31T07:03:58.719Z,12.90
2022-10-31T07:06:28.523Z,12.90
2022-10-31T07:08:58.723Z,12.90
2022-10-31T07:11:28.495Z,13.00
2022-10-31T07:13:58.294Z,13.10
2022-10-31T07:16:28.323Z,13.10
2022-10-31T07:19:00.615Z,13.10
2022-10-31T07:21:30.323Z,13.10
2022-10-31T07:24:00.077Z,13.20
2022-10-31T07:26:29.912Z,13.20
2022-10-31T07:29:00.213Z,13.20
2022-10-31T07:31:29.963Z,13.20
2022-10-31T07:34:02.336Z,13.20
2022-10-31T07:36:32.103Z,13.30
2022-10-31T07:39:03.651Z,13.30
2022-10-31T07:41:33.459Z,13.40
2022-10-31T07:44:03.168Z,13.40
2022-10-31T07:46:32.917Z,13.40
2022-10-31T07:49:05.303Z,13.40
2022-10-31T07:51:34.973Z,13.40
2022-10-31T07:54:04.943Z,13.50
2022-10-31T07:56:34.609Z,13.60
2022-10-31T07:59:04.311Z,13.60
2022-10-31T08:01:33.991Z,13.60
2022-10-31T08:04:06.343Z,13.70
2022-10-31T08:06:36.009Z,13.80
2022-10-31T08:09:05.675Z,13.80
2022-10-31T08:11:35.323Z,13.80
2022-10-31T08:14:05.094Z,13.90
2022-10-31T08:16:34.784Z,13.90
2022-10-31T08:19:07.075Z,13.90
2022-10-31T08:21:36.755Z,14.00
2022-10-31T08:24:06.535Z,14.00
2022-10-31T08:26:36.277Z,14.00
2022-10-31T08:29:06.314Z,14.10
2022-10-31T08:31:40.256Z,14.10
2022-10-31T08:34:14.990Z,14.10
2022-10-31T08:36:46.055Z,14.10
2022-10-31T08:39:15.713Z,14.20
2022-10-31T08:41:45.470Z,14.20
2022-10-31T08:44:16.708Z,14.30
2022-10-31T08:46:46.396Z,14.30
2022-10-31T08:49:18.671Z,14.40
2022-10-31T08:51:50.902Z,14.40
2022-10-31T08:54:20.543Z,14.50
2022-10-31T08:56:50.265Z,14.60
2022-10-31T08:59:19.892Z,14.70
2022-10-31T09:01:49.698Z,14.90
2022-10-31T09:04:22.052Z,15.10
2022-10-31T09:07:19.533Z,15.30
2022-10-31T09:09:41.367Z,15.30
2022-10-31T09:12:11.110Z,15.40
2022-10-31T09:14:40.767Z,15.40
2022-10-31T09:17:10.531Z,15.40
2022-10-31T09:19:42.797Z,15.30
2022-10-31T09:22:12.507Z,15.30
2022-10-31T09:24:42.125Z,15.30
2022-10-31T09:27:12.175Z,15.30
2022-10-31T09:29:41.874Z,15.20
2022-10-31T09:32:11.576Z,15.20
2022-10-31T09:34:43.847Z,15.20
2022-10-31T09:37:13.502Z,15.20
2022-10-31T09:39:43.168Z,15.20
2022-10-31T09:42:33.374Z,15.30
2022-10-31T09:45:08.170Z,15.40
2022-10-31T09:47:44.334Z,15.30
2022-10-31T09:50:21.971Z,13.30
2022-10-31T09:52:55.725Z,15.30
2022-10-31T09:55:29.175Z,15.30
2022-10-31T09:57:58.987Z,15.20
2022-10-31T10:00:28.786Z,15.20
2022-10-31T10:03:01.095Z,15.20
2022-10-31T10:05:40.731Z,15.20
2022-10-31T10:08:13.024Z,15.10
2022-10-31T10:10:49.016Z,15.00
2022-10-31T10:13:26.251Z,15.00
2022-10-31T10:16:03.505Z,15.00
2022-10-31T10:18:37.521Z,15.00
2022-10-31T10:21:17.750Z,15.00
2022-10-31T10:23:54.517Z,15.00
2022-10-31T10:26:25.315Z,15.00
2022-10-31T10:28:59.066Z,15.00
2022-10-31T10:31:31.038Z,15.10
2022-10-31T10:34:05.761Z,15.10
2022-10-31T10:36:40.504Z,15.10
2022-10-31T10:39:15.677Z,15.10
2022-10-31T10:41:47.787Z,15.20
2022-10-31T10:44:17.655Z,15.30
2022-10-31T10:47:03.656Z,15.30
2022-10-31T10:49:36.411Z,15.50
2022-10-31T10:52:27.040Z,15.60
2022-10-31T10:55:06.472Z,15.70
2022-10-31T10:57:47.973Z,15.70
2022-10-31T11:00:22.594Z,15.70
2022-10-31T11:02:52.523Z,15.80
2022-10-31T11:05:30.046Z,15.90
2022-10-31T11:08:03.589Z,16.00
2022-10-31T11:10:34.340Z,16.10
2022-10-31T11:13:05.723Z,16.10
2022-10-31T11:15:37.512Z,16.40
2022-10-31T11:18:08.044Z,16.40
2022-10-31T11:20:38.606Z,16.60
2022-10-31T11:23:19.896Z,16.70
2022-10-31T11:25:53.701Z,16.70
2022-10-31T11:28:23.341Z,16.60
2022-10-31T11:30:53.997Z,16.50
2022-10-31T11:33:25.854Z,16.50
2022-10-31T11:35:58.140Z,16.50
2022-10-31T11:38:34.309Z,16.40
2022-10-31T11:41:08.062Z,16.40
2022-10-31T11:43:37.880Z,16.40
2022-10-31T11:46:12.671Z,16.30
2022-10-31T11:48:42.372Z,16.30
2022-10-31T11:51:12.628Z,16.30
2022-10-31T11:53:56.849Z,16.30
2022-10-31T11:56:30.325Z,16.20
2022-10-31T11:59:00.417Z,16.30
2022-10-31T12:01:31.071Z,16.30
2022-10-31T12:04:04.026Z,16.30
2022-10-31T12:06:36.209Z,16.40
2022-10-31T12:09:14.942Z,16.40
2022-10-31T12:11:50.689Z,16.40
2022-10-31T12:14:26.524Z,16.50
2022-10-31T12:17:00.360Z,16.70
2022-10-31T12:19:41.313Z,16.70
2022-10-31T12:22:17.674Z,16.90
2022-10-31T12:24:55.742Z,17.10
2022-10-31T12:27:32.402Z,17.10
2022-10-31T12:30:06.273Z,17.20
2022-10-31T12:32:40.354Z,17.20
2022-10-31T12:35:17.933Z,17.20
2022-10-31T12:37:54.878Z,17.20
2022-10-31T12:40:37.082Z,17.20
2022-10-31T12:43:12.998Z,17.30
2022-10-31T12:45:49.564Z,17.40
2022-10-31T12:48:26.008Z,17.40
2022-10-31T12:50:58.370Z,17.50
2022-10-31T12:53:39.259Z,17.50
2022-10-31T12:56:17.096Z,17.50
2022-10-31T12:58:49.032Z,17.40
2022-10-31T13:01:21.581Z,17.50
2022-10-31T13:03:55.233Z,17.50
2022-10-31T13:06:27.844Z,17.50
2022-10-31T13:08:58.901Z,17.40
2022-10-31T13:11:32.836Z,17.20
2022-10-31T13:14:06.547Z,17.20
2022-10-31T13:16:39.016Z,17.20
2022-10-31T13:19:12.917Z,17.30
2022-10-31T13:21:45.324Z,17.40
2022-10-31T13:24:17.575Z,17.50
2022-10-31T13:26:51.818Z,17.40
2022-10-31T13:29:25.765Z,17.40
2022-10-31T13:31:58.146Z,17.50
2022-10-31T13:34:30.116Z,17.50
2022-10-31T13:37:03.940Z,17.60
2022-10-31T13:39:37.045Z,17.60
2022-10-31T13:42:14.558Z,17.70
2022-10-31T13:44:44.234Z,17.70
2022-10-31T13:47:29.606Z,17.70
2022-10-31T13:50:11.553Z,17.70
2022-10-31T13:52:43.901Z,17.70
2022-10-31T13:55:38.421Z,17.70
2022-10-31T13:58:23.304Z,17.60
2022-10-31T14:01:01.990Z,17.70
2022-10-31T14:03:57.758Z,17.60
2022-10-31T14:06:21.383Z,17.70
2022-10-31T14:08:53.548Z,17.70
2022-10-31T14:11:31.585Z,17.70
2022-10-31T14:14:07.020Z,17.80
2022-10-31T14:16:39.298Z,17.80
2022-10-31T14:19:10.403Z,17.80
2022-10-31T14:21:41.763Z,17.70
2022-10-31T14:24:17.508Z,17.70
2022-10-31T14:26:57.052Z,17.70
2022-10-31T14:29:30.647Z,17.70
2022-10-31T14:32:12.244Z,17.60
2022-10-31T14:34:43.657Z,17.60
2022-10-31T14:37:28.382Z,17.70
2022-10-31T14:40:06.602Z,17.70
2022-10-31T14:42:42.506Z,17.70
2022-10-31T14:45:25.583Z,17.60
2022-10-31T14:48:06.870Z,17.50
2022-10-31T14:50:45.025Z,17.60
2022-10-31T14:53:17.134Z,17.50
2022-10-31T14:55:48.823Z,17.60
2022-10-31T14:58:21.368Z,17.70
2022-10-31T15:00:55.159Z,17.60
2022-10-31T15:03:28.768Z,17.60
2022-10-31T15:05:59.499Z,17.60
2022-10-31T15:08:36.944Z,17.60
2022-10-31T15:11:07.385Z,17.50
2022-10-31T15:13:37.324Z,17.50
2022-10-31T15:16:12.100Z,17.50
2022-10-31T15:18:48.407Z,17.50
2022-10-31T15:21:18.816Z,17.50
2022-10-31T15:23:48.637Z,17.50
2022-10-31T15:26:19.945Z,17.40
2022-10-31T15:28:49.827Z,17.40
2022-10-31T15:31:22.131Z,17.50
2022-10-31T15:33:52.476Z,17.50
2022-10-31T15:36:27.282Z,17.40
2022-10-31T15:38:59.484Z,17.30
2022-10-31T15:41:32.306Z,17.30
2022-10-31T15:44:04.891Z,17.30
2022-10-31T15:46:37.626Z,17.30
2022-10-31T15:49:07.400Z,17.20
2022-10-31T15:51:39.025Z,17.20
2022-10-31T15:54:08.902Z,17.10
2022-10-31T15:56:38.734Z,17.10
2022-10-31T15:59:08.656Z,17.00
2022-10-31T16:01:41.094Z,17.00
2022-10-31T16:04:24.312Z,17.00
2022-10-31T16:07:02.252Z,16.90
2022-10-31T16:09:32.341Z,16.90
2022-10-31T16:12:02.802Z,16.80
2022-10-31T16:14:34.261Z,16.80
2022-10-31T16:17:06.585Z,16.80
2022-10-31T16:19:37.533Z,16.70
2022-10-31T16:22:08.916Z,16.70
2022-10-31T16:24:41.890Z,16.60
2022-10-31T16:27:31.076Z,16.50
2022-10-31T16:30:02.585Z,16.50
2022-10-31T16:32:36.507Z,16.50
2022-10-31T16:35:21.739Z,16.50
2022-10-31T16:37:51.451Z,16.50
2022-10-31T16:40:21.719Z,16.40
2022-10-31T16:42:51.701Z,16.40
2022-10-31T16:45:22.412Z,16.30
2022-10-31T16:47:54.999Z,16.30
2022-10-31T16:50:25.275Z,16.30
2022-10-31T16:55:46.740Z,16.20
2022-10-31T16:58:21.279Z,16.30
2022-10-31T17:00:51.196Z,16.30
2022-10-31T17:03:23.594Z,16.10
2022-10-31T17:05:53.338Z,16.10
2022-10-31T17:08:23.063Z,16.10
2022-10-31T17:10:54.553Z,16.10
2022-10-31T17:13:25.540Z,16.10
2022-10-31T17:15:56.960Z,16.00
2022-10-31T17:18:29.508Z,16.00
2022-10-31T17:21:00.005Z,16.00
2022-10-31T17:23:29.996Z,16.00
2022-10-31T17:25:59.970Z,16.00
2022-10-31T17:28:29.647Z,16.00
2022-10-31T17:30:59.749Z,15.90
2022-10-31T17:33:32.018Z,15.90
2022-10-31T17:36:01.852Z,15.90
2022-10-31T17:38:31.485Z,15.90
2022-10-31T17:41:01.147Z,15.90
2022-10-31T17:43:30.812Z,15.90
2022-10-31T17:46:02.133Z,15.80
2022-10-31T17:48:35.759Z,15.80
2022-10-31T17:51:05.758Z,15.80
2022-10-31T17:53:36.223Z,15.90
2022-10-31T17:56:06.683Z,15.90
2022-10-31T17:58:37.390Z,16.00
2022-10-31T18:01:10.412Z,16.00
2022-10-31T18:03:42.869Z,16.00
2022-10-31T18:06:14.653Z,16.10
2022-10-31T18:08:44.342Z,16.00
2022-10-31T18:11:14.913Z,16.00
2022-10-31T18:13:44.580Z,15.90
2022-10-31T18:16:15.119Z,15.90
2022-10-31T18:18:47.531Z,15.80
2022-10-31T18:21:18.061Z,15.80
2022-10-31T18:23:47.909Z,15.80
2022-10-31T18:26:17.576Z,15.80
2022-10-31T18:28:47.299Z,15.90
2022-10-31T18:31:17.044Z,15.90
2022-10-31T18:36:39.310Z,15.80
2022-10-31T18:39:09.026Z,15.80
2022-10-31T18:41:38.677Z,15.90
2022-10-31T18:44:08.391Z,15.90
2022-10-31T18:46:38.752Z,15.90
2022-10-31T18:49:12.124Z,15.90
2022-10-31T18:51:41.788Z,15.80
2022-10-31T18:54:12.237Z,15.90
2022-10-31T18:56:41.903Z,15.90
2022-10-31T18:59:12.050Z,16.00
2022-10-31T19:01:42.055Z,16.00
2022-10-31T19:04:15.158Z,16.00
2022-10-31T19:06:44.805Z,16.00
2022-10-31T19:09:14.474Z,16.00
2022-10-31T19:11:44.182Z,16.00
2022-10-31T19:14:15.308Z,15.90
2022-10-31T19:16:45.200Z,15.90
2022-10-31T19:19:17.508Z,15.90
2022-10-31T19:21:47.237Z,15.90
2022-10-31T19:24:16.999Z,15.90
2022-10-31T19:26:47.102Z,15.90
2022-10-31T19:29:16.848Z,15.90
2022-10-31T19:31:48.288Z,15.90
2022-10-31T19:34:20.566Z,15.90
2022-10-31T19:36:50.310Z,15.80
2022-10-31T19:39:19.994Z,15.80
2022-10-31T19:41:49.688Z,15.80
2022-10-31T19:44:19.355Z,15.90
2022-10-31T19:46:53.504Z,15.80
2022-10-31T19:49:26.259Z,15.80
2022-10-31T19:51:56.153Z,15.80
2022-10-31T19:54:25.990Z,15.80
2022-10-31T19:56:55.661Z,15.80
2022-10-31T19:59:26.331Z,15.70
2022-10-31T20:01:56.209Z,15.70
2022-10-31T20:04:28.603Z,15.70
2022-10-31T20:06:58.238Z,15.70
2022-10-31T20:09:28.111Z,15.60
2022-10-31T20:11:57.806Z,15.60
2022-10-31T20:14:28.214Z,15.50
2022-10-31T20:16:57.896Z,15.50
2022-10-31T20:19:30.278Z,15.50
2022-10-31T20:22:00.033Z,15.50
2022-10-31T20:24:29.754Z,15.50
2022-10-31T20:26:59.461Z,15.50
2022-10-31T20:29:29.154Z,15.50
2022-10-31T20:31:59.105Z,15.40
2022-10-31T20:34:31.534Z,15.40
2022-10-31T20:37:01.354Z,15.40
2022-10-31T20:39:32.182Z,15.40
2022-10-31T20:42:01.846Z,15.50
2022-10-31T20:44:31.555Z,15.50
2022-10-31T20:47:01.295Z,15.60
2022-10-31T20:49:33.564Z,15.60
2022-10-31T20:52:03.583Z,15.70
2022-10-31T20:54:33.218Z,15.80
2022-10-31T20:57:02.998Z,15.80
2022-10-31T20:59:32.681Z,15.80
2022-10-31T21:02:02.521Z,15.80
2022-10-31T21:04:34.972Z,15.80
2022-10-31T21:07:04.606Z,15.80
2022-10-31T21:09:34.265Z,15.80
2022-10-31T21:12:04.001Z,15.70
2022-10-31T21:14:33.666Z,15.80
2022-10-31T21:17:03.431Z,15.80
2022-10-31T21:19:36.309Z,15.80
2022-10-31T21:22:06.002Z,15.90
2022-10-31T21:24:35.825Z,15.80
2022-10-31T21:27:09.950Z,15.90
2022-10-31T21:29:42.248Z,15.80
2022-10-31T21:32:11.925Z,15.80
2022-10-31T21:34:44.225Z,15.80
2022-10-31T21:37:13.907Z,15.80
2022-10-31T21:39:48.133Z,15.80
2022-10-31T21:42:21.560Z,15.80
2022-10-31T21:44:51.725Z,15.80
2022-10-31T21:47:21.411Z,15.80
2022-10-31T21:49:53.781Z,15.80
2022-10-31T21:52:23.525Z,15.80
2022-10-31T21:54:50.580Z,15.90
2022-10-31T21:59:49.840Z,15.90
2022-10-31T22:02:19.574Z,16.00
2022-10-31T22:04:51.048Z,16.10
2022-10-31T22:07:23.341Z,16.10
2022-10-31T22:09:52.975Z,16.10
2022-10-31T22:12:22.648Z,16.00
2022-10-31T22:14:52.280Z,16.00
2022-10-31T22:17:22.270Z,16.10
2022-10-31T22:19:51.964Z,16.10
2022-10-31T22:22:24.285Z,16.10
2022-10-31T22:24:54.001Z,16.10
2022-10-31T22:27:23.676Z,16.10
2022-10-31T22:29:56.540Z,16.10
2022-10-31T22:32:27.357Z,16.20
2022-10-31T22:34:57.041Z,16.30
2022-10-31T22:37:29.292Z,16.40
2022-10-31T22:39:59.081Z,16.40
2022-10-31T22:42:28.753Z,16.40
2022-10-31T22:45:02.103Z,16.40
2022-10-31T22:47:31.902Z,16.40
2022-10-31T22:50:01.750Z,16.40
2022-10-31T22:52:34.072Z,16.40
2022-10-31T22:55:03.875Z,16.50
2022-10-31T22:57:33.550Z,16.40
2022-10-31T23:00:03.315Z,16.50
2022-10-31T23:02:33.317Z,16.60
2022-10-31T23:05:03.289Z,16.60
2022-10-31T23:07:35.536Z,16.70
2022-10-31T23:10:05.219Z,16.70
2022-10-31T23:12:47.319Z,16.70
2022-10-31T23:15:16.986Z,16.70
2022-10-31T23:17:46.670Z,16.80
2022-10-31T23:20:16.343Z,16.90
2022-10-31T23:22:48.640Z,16.80
2022-10-31T23:25:30.889Z,16.80
2022-10-31T23:28:00.595Z,16.90
2022-10-31T23:30:30.248Z,16.90
2022-10-31T23:33:00.450Z,16.90
2022-10-31T23:35:30.453Z,17.00
2022-10-31T23:38:03.045Z,17.00
2022-10-31T23:40:32.960Z,17.00
2022-10-31T23:43:02.680Z,17.00
2022-10-31T23:45:32.317Z,17.10
2022-10-31T23:48:02.130Z,17.00
2022-10-31T23:50:32.063Z,17.00
2022-10-31T23:53:04.325Z,17.00
2022-10-31T23:55:34.937Z,17.10
2022-10-31T23:58:04.916Z,17.10
